Time;durP1;ratioP1;P1;durP2;ratioP2;P2;SDS_P1;SDS_P2;PMS_P1;PMS_P2;Temp;Humidity;BMP_temperature;BMP_pressure;BME280_temperature;BME280_humidity;BME280_pressure;Samples;Min_cycle;Max_cycle;Signal;HPM_P1;HPM_P2
2022/08/03 00:01:21;;;;;;;5.40;3.97;;;23.30;1.00;;;;;;5050831;28;20223;-57
2022/08/03 00:03:46;;;;;;;7.10;4.57;;;23.30;1.00;;;;;;5048210;28;20321;-58
2022/08/03 00:06:12;;;;;;;8.53;4.37;;;23.30;1.00;;;;;;5052951;28;20195;-56
2022/08/03 00:08:38;;;;;;;5.03;4.20;;;23.20;1.00;;;;;;5047228;28;20704;-58
2022/08/03 00:11:08;;;;;;;4.87;4.47;;;23.30;1.00;;;;;;5055392;28;20184;-58
2022/08/03 00:13:33;;;;;;;4.90;4.33;;;23.20;1.00;;;;;;5048163;28;20188;-58
2022/08/03 00:15:59;;;;;;;5.80;5.23;;;23.10;1.00;;;;;;5058487;28;20789;-58
2022/08/03 00:18:25;;;;;;;4.53;4.13;;;;;;;;;;5091504;28;20951;-58
2022/08/03 00:20:51;;;;;;;5.00;4.23;;;23.10;1.00;;;;;;5048914;28;20191;-58
2022/08/03 00:23:17;;;;;;;4.43;4.00;;;;;;;;;;5047339;28;20539;-58
2022/08/03 00:25:42;;;;;;;4.67;4.27;;;23.00;1.00;;;;;;5048732;28;20187;-58
2022/08/03 00:28:08;;;;;;;5.20;4.70;;;23.00;1.00;;;;;;5049444;28;20446;-57
2022/08/03 00:30:35;;;;;;;4.57;4.07;;;22.90;1.00;;;;;;5050082;28;20597;-59
2022/08/03 00:33:01;;;;;;;4.17;3.87;;;22.90;1.00;;;;;;5044335;28;20456;-58
2022/08/03 00:35:27;;;;;;;4.30;3.90;;;22.90;1.00;;;;;;5049330;28;20557;-57
2022/08/03 00:37:53;;;;;;;7.10;3.57;;;22.90;1.00;;;;;;5047048;28;20448;-58
2022/08/03 00:40:19;;;;;;;4.73;4.00;;;22.90;1.00;;;;;;5047102;28;20527;-58
2022/08/03 00:42:55;;;;;;;4.40;4.10;;;22.80;1.00;;;;;;5049114;28;20604;-57
2022/08/03 00:45:23;;;;;;;4.30;3.90;;;22.70;1.00;;;;;;5044055;28;20442;-58
2022/08/03 00:47:49;;;;;;;6.00;4.20;;;22.70;1.00;;;;;;5047781;28;20441;-57
2022/08/03 00:50:16;;;;;;;5.90;3.90;;;22.60;1.00;;;;;;5045681;28;20480;-59
2022/08/03 00:52:42;;;;;;;5.00;3.73;;;22.50;1.00;;;;;;5045435;28;20771;-57
2022/08/03 00:55:10;;;;;;;4.80;4.23;;;22.50;1.00;;;;;;5050495;28;20442;-58
2022/08/03 00:57:36;;;;;;;4.47;4.07;;;22.40;1.00;;;;;;5062663;28;20820;-57
2022/08/03 01:00:03;;;;;;;5.20;4.70;;;22.30;1.00;;;;;;5048399;28;20450;-58
2022/08/03 01:02:29;;;;;;;4.93;4.53;;;22.40;1.00;;;;;;5042214;28;20462;-58
2022/08/03 01:04:55;;;;;;;4.67;4.23;;;22.40;1.00;;;;;;5043782;28;20507;-57
2022/08/03 01:07:25;;;;;;;5.90;4.73;;;22.30;1.00;;;;;;5049125;28;20278;-57
2022/08/03 01:10:23;;;;;;;5.40;4.93;;;22.30;1.00;;;;;;5045950;28;20432;-58
2022/08/03 01:13:28;;;;;;;6.47;5.03;;;22.30;1.00;;;;;;5043894;28;20976;-57
2022/08/03 01:16:27;;;;;;;5.57;5.07;;;22.30;1.00;;;;;;5032960;28;20454;-58
2022/08/03 01:19:18;;;;;;;5.23;4.80;;;22.30;1.00;;;;;;5041090;28;20803;-57
2022/08/03 01:21:58;;;;;;;5.87;5.40;;;22.20;1.00;;;;;;5047744;28;20446;-58
2022/08/03 01:24:29;;;;;;;5.80;5.30;;;22.20;1.00;;;;;;5047500;28;20485;-59
2022/08/03 01:27:18;;;;;;;5.97;5.20;;;22.20;1.00;;;;;;5047757;28;20451;-58
2022/08/03 01:30:06;;;;;;;5.53;5.03;;;22.10;1.00;;;;;;5041340;28;20497;-58
2022/08/03 01:32:43;;;;;;;6.73;5.37;;;22.20;1.00;;;;;;5047390;28;20477;-58
2022/08/03 01:35:15;;;;;;;6.67;6.17;;;22.10;1.00;;;;;;5045529;28;20485;-58
2022/08/03 01:37:50;;;;;;;5.90;5.30;;;22.10;1.00;;;;;;5047981;28;20970;-58
2022/08/03 01:40:18;;;;;;;6.13;5.53;;;22.00;1.00;;;;;;5051176;28;20520;-58
2022/08/03 01:42:45;;;;;;;6.40;5.80;;;22.00;1.00;;;;;;5048702;28;20462;-58
2022/08/03 01:45:14;;;;;;;6.70;6.00;;;22.00;1.00;;;;;;5048594;28;20454;-57
2022/08/03 01:47:43;;;;;;;7.47;6.00;;;22.00;1.00;;;;;;5048164;28;21023;-58
2022/08/03 01:50:10;;;;;;;6.83;5.90;;;21.90;1.00;;;;;;5048458;28;20523;-58
2022/08/03 01:52:42;;;;;;;5.77;5.17;;;21.90;1.00;;;;;;5046729;28;21011;-57
2022/08/03 01:55:09;;;;;;;5.90;5.30;;;21.80;1.00;;;;;;5043139;28;22225;-58
2022/08/03 01:57:38;;;;;;;10.93;5.97;;;21.80;1.00;;;;;;5044383;28;20462;-58
2022/08/03 02:00:08;;;;;;;6.93;5.60;;;21.80;1.00;;;;;;5048507;28;20438;-57
2022/08/03 02:02:35;;;;;;;7.27;6.13;;;21.80;1.00;;;;;;5046109;28;20450;-58
2022/08/03 02:05:04;;;;;;;6.77;5.90;;;21.80;1.00;;;;;;5044886;28;20545;-59
2022/08/03 02:07:31;;;;;;;6.47;5.87;;;21.70;1.00;;;;;;5050526;28;20538;-58
2022/08/03 02:09:59;;;;;;;10.30;5.50;;;21.60;1.00;;;;;;5047341;28;20993;-58
2022/08/03 02:12:27;;;;;;;6.50;5.57;;;21.60;1.00;;;;;;5044270;28;20566;-56
2022/08/03 02:14:53;;;;;;;6.90;6.30;;;;;;;;;;5044546;28;20553;-57
2022/08/03 02:17:22;;;;;;;7.13;6.43;;;21.60;1.00;;;;;;5046779;28;20792;-57
2022/08/03 02:19:49;;;;;;;7.27;6.13;;;21.50;1.00;;;;;;5046243;28;20451;-58
2022/08/03 02:22:15;;;;;;;6.73;6.20;;;21.60;1.00;;;;;;5043825;28;20457;-57
2022/08/03 02:24:41;;;;;;;6.53;5.93;;;;;;;;;;5046519;28;20537;-58
2022/08/03 02:27:18;;;;;;;6.93;6.03;;;21.50;1.00;;;;;;5046419;28;20549;-57
2022/08/03 02:29:47;;;;;;;7.03;6.43;;;21.40;1.00;;;;;;5045486;28;20472;-58
2022/08/03 02:32:17;;;;;;;7.30;6.37;;;21.40;1.00;;;;;;5062090;28;20518;-59
2022/08/03 02:34:47;;;;;;;6.90;6.30;;;21.30;1.00;;;;;;5053127;28;20482;-58
2022/08/03 02:37:16;;;;;;;10.63;6.60;;;21.40;1.00;;;;;;5051352;28;20985;-58
2022/08/03 02:39:43;;;;;;;7.00;6.43;;;21.40;1.00;;;;;;5049108;28;20496;-56
2022/08/03 02:42:12;;;;;;;7.50;6.80;;;21.40;1.00;;;;;;5051897;28;20962;-57
2022/08/03 02:44:42;;;;;;;7.40;6.70;;;21.40;1.00;;;;;;5046485;28;20425;-58
2022/08/03 02:47:11;;;;;;;7.33;6.63;;;21.30;1.00;;;;;;5046256;28;20469;-58
2022/08/03 02:49:37;;;;;;;8.60;7.87;;;21.30;1.00;;;;;;5046014;28;20442;-58
2022/08/03 02:52:04;;;;;;;7.50;6.80;;;21.20;1.00;;;;;;5044550;28;20473;-57
2022/08/03 02:54:31;;;;;;;7.50;6.60;;;21.20;1.00;;;;;;5046962;28;20438;-57
2022/08/03 02:56:58;;;;;;;7.30;6.70;;;21.20;1.00;;;;;;5046770;28;20533;-59
2022/08/03 02:59:26;;;;;;;9.03;6.50;;;21.10;1.00;;;;;;5045740;28;20573;-57
2022/08/03 03:01:53;;;;;;;7.87;7.07;;;20.90;1.00;;;;;;5040219;28;20781;-57
2022/08/03 03:04:20;;;;;;;7.13;6.43;;;21.20;1.00;;;;;;5044017;28;20465;-58
2022/08/03 03:06:46;;;;;;;7.03;6.33;;;;;;;;;;5044283;28;20446;-57
2022/08/03 03:09:12;;;;;;;7.87;7.13;;;21.10;1.00;;;;;;5046028;28;21185;-57
2022/08/03 03:11:39;;;;;;;8.90;7.30;;;21.10;1.00;;;;;;5046723;28;20458;-58
2022/08/03 03:14:06;;;;;;;8.37;7.57;;;21.00;1.00;;;;;;5048957;28;20184;-59
2022/08/03 03:16:33;;;;;;;7.97;7.17;;;21.00;1.00;;;;;;5048939;28;20455;-58
2022/08/03 03:18:59;;;;;;;7.90;7.30;;;21.00;1.00;;;;;;5048706;28;20504;-57
2022/08/03 03:21:26;;;;;;;8.00;7.20;;;21.00;1.00;;;;;;5047601;28;20458;-58
2022/08/03 03:23:52;;;;;;;8.10;7.30;;;21.00;1.00;;;;;;5050010;28;20468;-57
2022/08/03 03:26:18;;;;;;;10.00;7.40;;;21.00;1.00;;;;;;5049931;28;20447;-56
2022/08/03 03:28:44;;;;;;;9.10;8.30;;;21.00;1.00;;;;;;5052348;28;20859;-59
2022/08/03 03:31:10;;;;;;;9.10;7.60;;;;;;;;;;5050337;28;20192;-57
2022/08/03 03:33:37;;;;;;;14.07;8.13;;;20.90;1.00;;;;;;5044465;28;20469;-56
2022/08/03 03:36:09;;;;;;;9.10;7.30;;;20.90;1.00;;;;;;5048974;28;20482;-58
2022/08/03 03:38:35;;;;;;;8.37;7.67;;;20.80;1.00;;;;;;5054230;28;20459;-58
2022/08/03 03:41:01;;;;;;;8.60;7.70;;;20.80;1.00;;;;;;5053054;28;20486;-57
2022/08/03 03:43:28;;;;;;;9.50;8.37;;;20.80;1.00;;;;;;5058239;28;20482;-57
2022/08/03 03:45:54;;;;;;;8.73;7.90;;;20.80;1.00;;;;;;5047550;28;21043;-58
2022/08/03 03:48:20;;;;;;;8.60;7.80;;;20.80;1.00;;;;;;5049923;28;20477;-57
2022/08/03 03:50:48;;;;;;;8.67;7.87;;;20.80;1.00;;;;;;5048468;28;21020;-58
2022/08/03 03:53:13;;;;;;;8.67;7.87;;;20.80;1.00;;;;;;5047596;28;20831;-57
2022/08/03 03:55:39;;;;;;;9.20;8.30;;;20.90;1.00;;;;;;5046017;28;20454;-56
2022/08/03 03:58:06;;;;;;;11.10;8.30;;;20.90;1.00;;;;;;5042897;28;20181;-58
2022/08/03 04:00:32;;;;;;;9.03;8.33;;;20.90;1.00;;;;;;5044193;28;20562;-58
2022/08/03 04:02:58;;;;;;;10.27;9.40;;;20.80;1.00;;;;;;5048641;28;20508;-56
2022/08/03 04:11:06;;;;;;;9.13;8.23;;;20.90;1.00;;;;;;5048710;28;20592;-58
2022/08/03 04:14:14;;;;;;;8.90;8.03;;;21.00;1.00;;;;;;5050053;28;20462;-57
2022/08/03 04:16:44;;;;;;;11.30;8.53;;;21.10;1.00;;;;;;5037166;28;20993;-57
2022/08/03 04:19:29;;;;;;;9.13;8.30;;;21.10;1.00;;;;;;5047935;28;20799;-58
2022/08/03 04:21:59;;;;;;;9.20;8.40;;;21.10;1.00;;;;;;5049156;28;20450;-58
2022/08/03 04:24:29;;;;;;;9.83;8.70;;;21.20;1.00;;;;;;5048179;28;20454;-57
2022/08/03 04:26:58;;;;;;;10.07;9.13;;;21.20;1.00;;;;;;5056880;28;20450;-57
2022/08/03 04:29:25;;;;;;;9.90;8.90;;;21.30;1.00;;;;;;5047953;28;20799;-57
2022/08/03 04:31:54;;;;;;;9.20;8.30;;;21.40;1.00;;;;;;5049324;28;20565;-58
2022/08/03 04:34:20;;;;;;;9.53;8.53;;;21.40;1.00;;;;;;5049070;28;21090;-58
2022/08/03 04:36:49;;;;;;;9.80;8.60;;;21.40;1.00;;;;;;5047671;28;20446;-59
2022/08/03 04:39:24;;;;;;;9.27;8.57;;;21.40;1.00;;;;;;5048700;28;20191;-58
2022/08/03 04:41:54;;;;;;;10.30;8.50;;;21.40;1.00;;;;;;5046544;28;20453;-58
2022/08/03 04:44:24;;;;;;;9.70;8.83;;;21.50;1.00;;;;;;5047197;28;20519;-59
2022/08/03 04:46:51;;;;;;;10.50;9.50;;;21.60;1.00;;;;;;5049475;28;20500;-59
2022/08/03 04:49:18;;;;;;;9.77;8.53;;;21.70;1.00;;;;;;5048203;28;20789;-59
2022/08/03 04:51:45;;;;;;;9.63;8.47;;;21.80;1.00;;;;;;5048816;28;20474;-59
2022/08/03 04:54:14;;;;;;;10.20;9.30;;;21.80;1.00;;;;;;5049376;28;20438;-60
2022/08/03 04:56:41;;;;;;;9.60;8.67;;;;;;;;;;5049614;28;20465;-59
2022/08/03 04:59:07;;;;;;;10.70;8.67;;;;;;;;;;5048226;28;20457;-58
2022/08/03 05:01:33;;;;;;;9.67;8.70;;;21.90;1.00;;;;;;5048156;28;20863;-59
2022/08/03 05:03:59;;;;;;;9.63;8.83;;;22.00;1.00;;;;;;5046934;28;20488;-58
2022/08/03 05:06:24;;;;;;;9.57;8.57;;;22.00;1.00;;;;;;5050030;28;20187;-59
2022/08/03 05:08:50;;;;;;;10.07;9.17;;;22.00;1.00;;;;;;5047372;28;20960;-59
2022/08/03 05:11:16;;;;;;;9.43;8.40;;;22.10;1.00;;;;;;5049089;28;20198;-59
2022/08/03 05:13:43;;;;;;;11.27;8.67;;;22.10;1.00;;;;;;5046958;28;20239;-61
2022/08/03 05:16:10;;;;;;;9.57;8.67;;;;;;;;;;5045154;28;20912;-59
2022/08/03 05:18:36;;;;;;;9.20;8.40;;;22.40;1.00;;;;;;5050586;28;20512;-60
2022/08/03 05:21:02;;;;;;;8.70;7.90;;;22.30;1.00;;;;;;5048506;28;20576;-59
2022/08/03 05:23:27;;;;;;;8.23;7.33;;;22.40;1.00;;;;;;5047915;28;21361;-60
2022/08/03 05:25:53;;;;;;;8.00;7.20;;;22.60;1.00;;;;;;5050013;28;20196;-58
2022/08/03 05:28:19;;;;;;;8.50;7.37;;;;;;;;;;5049062;28;20192;-59
2022/08/03 05:30:45;;;;;;;7.30;6.73;;;22.70;1.00;;;;;;5048615;28;20206;-58
2022/08/03 05:33:10;;;;;;;8.10;7.27;;;22.80;1.00;;;;;;5048654;28;20953;-58
2022/08/03 05:35:37;;;;;;;7.97;7.17;;;22.90;1.00;;;;;;5048760;28;20215;-59
2022/08/03 05:38:04;;;;;;;7.50;6.90;;;23.10;1.00;;;;;;5048649;28;20267;-59
2022/08/03 05:40:29;;;;;;;6.30;5.80;;;23.30;1.00;;;;;;5048289;28;20447;-59
2022/08/03 05:42:55;;;;;;;10.20;6.37;;;23.40;1.00;;;;;;5049380;28;20453;-60
2022/08/03 05:45:21;;;;;;;8.87;6.03;;;23.60;1.00;;;;;;5049949;28;20200;-58
2022/08/03 05:47:49;;;;;;;7.20;6.40;;;23.70;1.00;;;;;;5049554;28;20538;-58
2022/08/03 05:50:15;;;;;;;6.60;6.10;;;;;;;;;;5053409;28;20461;-59
2022/08/03 05:52:42;;;;;;;6.87;6.10;;;;;;;;;;5052621;28;20809;-59
2022/08/03 05:55:08;;;;;;;7.43;6.50;;;23.90;1.00;;;;;;5053894;28;20487;-58
2022/08/03 05:57:34;;;;;;;6.27;5.67;;;23.90;1.00;;;;;;5051197;28;20443;-59
2022/08/03 06:00:04;;;;;;;6.87;6.10;;;24.00;1.00;;;;;;5052654;28;20507;-59
2022/08/03 06:02:29;;;;;;;7.33;6.07;;;24.10;1.00;;;;;;5063498;28;20196;-59
2022/08/03 06:04:55;;;;;;;6.17;5.63;;;24.20;1.00;;;;;;5052436;28;20804;-59
2022/08/03 06:07:21;;;;;;;8.43;5.87;;;24.40;1.00;;;;;;5051388;28;20703;-59
2022/08/03 06:09:47;;;;;;;10.17;6.40;;;24.40;1.00;;;;;;5052498;28;20191;-60
2022/08/03 06:12:12;;;;;;;6.57;5.97;;;24.60;1.00;;;;;;5050629;28;20212;-59
2022/08/03 06:14:38;;;;;;;8.10;6.40;;;24.70;1.00;;;;;;5052067;28;20969;-58
2022/08/03 06:17:04;;;;;;;6.90;5.90;;;;;;;;;;5052490;28;20184;-59
2022/08/03 06:19:30;;;;;;;5.90;5.50;;;;;;;;;;5051876;28;20230;-59
2022/08/03 06:21:55;;;;;;;6.10;5.57;;;24.90;1.00;;;;;;5052182;28;20450;-59
2022/08/03 06:24:21;;;;;;;6.67;6.00;;;25.10;1.00;;;;;;5050797;28;20534;-60
2022/08/03 06:26:47;;;;;;;10.77;6.40;;;25.10;1.00;;;;;;5052082;28;20207;-59
2022/08/03 06:29:12;;;;;;;8.33;5.33;;;25.20;1.00;;;;;;5048859;28;20282;-59
2022/08/03 06:31:38;;;;;;;6.43;5.70;;;25.40;1.00;;;;;;5051330;28;20184;-59
2022/08/03 06:34:04;;;;;;;7.47;6.07;;;25.30;1.00;;;;;;5050743;28;20195;-59
2022/08/03 06:36:30;;;;;;;6.23;5.67;;;21.80;1.00;;;;;;5051413;28;20180;-60
2022/08/03 06:38:59;;;;;;;6.10;5.50;;;25.50;1.00;;;;;;5051375;28;20465;-59
2022/08/03 06:41:26;;;;;;;6.37;5.77;;;25.70;1.00;;;;;;5052119;28;20458;-60
2022/08/03 06:43:52;;;;;;;5.47;5.07;;;25.80;1.00;;;;;;5050822;28;20446;-59
2022/08/03 06:46:19;;;;;;;7.27;5.73;;;25.90;1.00;;;;;;5053080;28;20449;-59
2022/08/03 06:48:44;;;;;;;6.30;5.10;;;26.00;1.00;;;;;;5051195;28;20434;-59
2022/08/03 06:51:10;;;;;;;5.73;4.67;;;26.10;1.00;;;;;;5052436;28;20430;-59
2022/08/03 06:53:36;;;;;;;5.70;5.10;;;26.10;1.00;;;;;;5052183;28;20342;-59
2022/08/03 06:56:07;;;;;;;7.63;5.20;;;26.20;1.00;;;;;;5052769;28;20188;-59
2022/08/03 06:58:33;;;;;;;5.33;4.93;;;26.50;1.00;;;;;;5052299;28;20188;-60
2022/08/03 07:00:59;;;;;;;5.40;4.93;;;26.60;1.00;;;;;;5051478;28;20447;-59
2022/08/03 07:03:25;;;;;;;5.57;4.93;;;26.90;1.00;;;;;;5051953;28;20539;-59
2022/08/03 07:05:51;;;;;;;6.90;4.90;;;27.20;1.00;;;;;;5052267;28;20196;-60
2022/08/03 07:08:17;;;;;;;6.63;5.20;;;27.20;1.00;;;;;;5051835;28;20685;-59
2022/08/03 07:10:44;;;;;;;5.13;4.63;;;27.20;1.00;;;;;;5051649;28;20189;-59
2022/08/03 07:13:10;;;;;;;6.03;4.73;;;27.40;1.00;;;;;;5048139;28;21015;-60
2022/08/03 07:15:36;;;;;;;7.50;4.83;;;27.60;1.00;;;;;;5051716;28;20521;-60
2022/08/03 07:18:01;;;;;;;4.87;4.37;;;27.60;1.00;;;;;;5050902;28;20513;-59
2022/08/03 07:20:27;;;;;;;5.07;4.67;;;27.70;1.00;;;;;;5050730;28;20668;-58
2022/08/03 07:22:53;;;;;;;6.73;4.70;;;27.80;1.00;;;;;;5050862;28;20180;-58
2022/08/03 07:25:19;;;;;;;5.10;4.60;;;27.80;1.00;;;;;;5051491;28;20210;-59
2022/08/03 07:27:46;;;;;;;5.50;5.00;;;27.90;1.00;;;;;;5051480;28;20184;-59
2022/08/03 07:30:13;;;;;;;5.83;5.10;;;28.00;1.00;;;;;;5050931;28;20446;-60
2022/08/03 07:32:39;;;;;;;5.80;5.30;;;28.20;1.00;;;;;;5051682;28;20492;-59
2022/08/03 07:35:06;;;;;;;4.70;4.30;;;28.30;1.00;;;;;;5050868;28;20566;-59
2022/08/03 07:37:32;;;;;;;4.93;4.47;;;28.40;1.00;;;;;;5048923;28;20877;-60
2022/08/03 07:39:59;;;;;;;6.00;5.27;;;28.40;1.00;;;;;;5051358;28;21124;-59
2022/08/03 07:42:26;;;;;;;4.70;4.33;;;28.70;1.00;;;;;;5051685;28;20449;-58
2022/08/03 07:44:52;;;;;;;7.33;4.27;;;29.00;1.00;;;;;;5051490;28;20421;-59
2022/08/03 07:47:19;;;;;;;7.00;4.97;;;29.10;1.00;;;;;;5047841;28;20529;-59
2022/08/03 07:49:44;;;;;;;4.80;4.00;;;29.30;1.00;;;;;;5049829;28;20257;-59
2022/08/03 07:54:54;;;;;;;7.93;7.23;;;29.50;1.00;;;;;;5051247;28;20570;-59
2022/08/03 07:57:20;;;;;;;6.17;4.50;;;;;;;;;;5048595;28;20454;-59
2022/08/03 07:59:46;;;;;;;5.37;4.87;;;29.90;1.00;;;;;;5051327;28;20267;-59
2022/08/03 08:02:13;;;;;;;4.10;3.70;;;29.90;1.00;;;;;;5054739;28;20502;-59
2022/08/03 08:04:38;;;;;;;5.23;3.63;;;30.10;1.00;;;;;;5050450;28;20577;-59
2022/08/03 08:07:04;;;;;;;5.43;4.20;;;30.00;1.00;;;;;;5049362;28;20847;-60
2022/08/03 08:09:30;;;;;;;5.00;4.43;;;;;;;;;;5049477;28;20212;-59
2022/08/03 08:11:56;;;;;;;4.10;3.70;;;30.10;1.00;;;;;;5048389;28;20218;-60
2022/08/03 08:14:21;;;;;;;4.53;4.13;;;30.00;1.00;;;;;;5049260;28;20450;-59
2022/08/03 08:16:48;;;;;;;4.77;3.70;;;30.00;1.00;;;;;;5057613;28;20278;-60
2022/08/03 08:19:15;;;;;;;3.70;3.40;;;30.20;1.00;;;;;;5050816;28;20605;-59
2022/08/03 08:21:41;;;;;;;5.60;4.07;;;;;;;;;;5050862;28;20446;-58
2022/08/03 08:24:07;;;;;;;3.87;3.57;;;30.50;1.00;;;;;;5065277;28;20791;-60
2022/08/03 08:26:33;;;;;;;3.83;3.53;;;30.70;1.00;;;;;;5066963;28;20533;-60
2022/08/03 08:28:58;;;;;;;7.93;3.50;;;30.60;1.00;;;;;;5049645;28;20438;-59
2022/08/03 08:31:24;;;;;;;3.23;2.70;;;30.70;1.00;;;;;;5047885;28;20188;-60
2022/08/03 08:33:50;;;;;;;4.80;3.10;;;30.80;1.00;;;;;;5055490;28;20207;-59
2022/08/03 08:36:15;;;;;;;4.30;3.70;;;30.60;1.00;;;;;;5060673;28;20272;-60
2022/08/03 08:38:43;;;;;;;3.97;3.57;;;30.50;1.00;;;;;;5058742;28;20187;-58
2022/08/03 08:41:13;;;;;;;3.60;3.30;;;30.70;1.00;;;;;;5049811;28;20188;-60
2022/08/03 08:43:40;;;;;;;3.10;2.90;;;31.20;1.00;;;;;;5048908;28;20499;-59
2022/08/03 08:46:14;;;;;;;5.97;3.00;;;31.30;1.00;;;;;;5066160;28;20553;-59
2022/08/03 08:48:42;;;;;;;3.00;2.70;;;31.50;1.00;;;;;;5049415;28;20923;-59
2022/08/03 08:51:12;;;;;;;3.93;3.53;;;31.70;1.00;;;;;;5047825;28;20455;-61
2022/08/03 08:53:42;;;;;;;3.90;3.10;;;31.80;1.00;;;;;;5050745;28;20470;-59
2022/08/03 08:56:16;;;;;;;3.37;3.07;;;31.80;1.00;;;;;;5048146;28;20449;-60
2022/08/03 08:58:56;;;;;;;6.47;3.27;;;32.10;1.00;;;;;;5053402;28;20464;-59
2022/08/03 09:01:22;;;;;;;2.87;2.67;;;32.30;1.00;;;;;;5048351;28;20933;-60
2022/08/03 09:03:48;;;;;;;3.70;3.40;;;32.40;1.00;;;;;;5048850;28;20511;-60
2022/08/03 09:06:14;;;;;;;3.40;3.10;;;32.40;1.00;;;;;;5046628;28;20454;-60
2022/08/03 09:08:40;;;;;;;6.57;3.20;;;32.40;1.00;;;;;;5046784;28;20958;-59
2022/08/03 09:11:09;;;;;;;4.10;2.67;;;32.20;1.00;;;;;;5050258;28;20513;-59
2022/08/03 09:13:35;;;;;;;7.60;2.80;;;32.20;1.00;;;;;;5049247;28;20231;-59
2022/08/03 09:16:18;;;;;;;3.20;2.83;;;32.20;1.00;;;;;;5049994;28;20439;-59
2022/08/03 09:18:46;;;;;;;3.00;2.80;;;32.00;1.00;;;;;;5047175;28;20454;-60
2022/08/03 09:21:16;;;;;;;4.03;3.00;;;32.40;1.00;;;;;;5048477;28;20425;-59
2022/08/03 09:24:02;;;;;;;4.50;3.27;;;32.20;1.00;;;;;;5049390;28;20560;-59
2022/08/03 09:26:30;;;;;;;7.97;4.07;;;32.10;1.00;;;;;;5049904;28;20536;-59
2022/08/03 09:29:04;;;;;;;2.93;2.73;;;32.20;1.00;;;;;;5050213;28;20416;-60
2022/08/03 09:31:35;;;;;;;3.80;3.10;;;32.20;1.00;;;;;;5049805;28;20774;-60
2022/08/03 09:34:11;;;;;;;5.40;3.10;;;32.40;1.00;;;;;;5049832;28;20918;-59
2022/08/03 09:36:41;;;;;;;2.90;2.70;;;32.80;1.00;;;;;;5049709;28;20430;-59
2022/08/03 09:39:10;;;;;;;2.80;2.60;;;32.90;1.00;;;;;;5050094;28;20441;-59
2022/08/03 09:41:40;;;;;;;4.00;3.10;;;32.90;1.00;;;;;;5060741;28;20432;-59
2022/08/03 09:44:07;;;;;;;4.27;3.20;;;33.10;1.00;;;;;;5070005;28;20415;-59
2022/08/03 09:46:47;;;;;;;5.60;2.67;;;33.40;1.00;;;;;;5069796;28;20647;-59
2022/08/03 09:49:13;;;;;;;3.23;2.97;;;33.50;1.00;;;;;;5048369;28;21037;-59
2022/08/03 09:51:39;;;;;;;13.20;4.40;;;33.50;1.00;;;;;;5048445;28;20402;-59
2022/08/03 09:54:05;;;;;;;6.97;3.50;;;;;;;;;;5049569;28;20511;-60
2022/08/03 09:56:46;;;;;;;4.47;3.30;;;33.50;1.00;;;;;;5048127;28;20580;-59
2022/08/03 09:59:21;;;;;;;2.97;2.77;;;32.90;1.00;;;;;;5049678;28;20557;-58
2022/08/03 10:01:47;;;;;;;5.20;3.73;;;32.80;1.00;;;;;;5049213;28;20488;-59
2022/08/03 10:04:15;;;;;;;6.90;3.47;;;32.70;1.00;;;;;;5049373;28;20434;-58
2022/08/03 10:06:59;;;;;;;4.57;3.07;;;33.00;1.00;;;;;;5049315;28;20769;-59
2022/08/03 10:09:25;;;;;;;3.90;3.13;;;33.10;1.00;;;;;;5048965;28;20777;-60
2022/08/03 10:11:51;;;;;;;4.67;2.80;;;33.30;1.00;;;;;;5062050;28;20507;-59
2022/08/03 10:14:21;;;;;;;3.30;2.83;;;33.50;1.00;;;;;;5069643;28;20180;-59
2022/08/03 10:16:47;;;;;;;5.03;3.00;;;33.60;1.00;;;;;;5068837;28;20179;-59
2022/08/03 10:19:14;;;;;;;3.87;2.53;;;;;;;;;;5049549;28;20443;-61
2022/08/03 10:21:46;;;;;;;3.83;3.43;;;33.30;1.00;;;;;;5049274;28;20471;-60
2022/08/03 10:24:15;;;;;;;3.40;3.10;;;33.20;1.00;;;;;;5049448;28;20429;-60
2022/08/03 10:26:43;;;;;;;4.37;2.77;;;33.20;1.00;;;;;;5049428;28;20430;-59
2022/08/03 10:29:20;;;;;;;3.37;2.80;;;33.10;1.00;;;;;;5049451;28;20417;-59
2022/08/03 10:31:46;;;;;;;6.37;3.10;;;33.00;1.00;;;;;;5049768;28;20947;-59
2022/08/03 10:34:21;;;;;;;3.40;3.10;;;32.90;1.00;;;;;;5050173;28;20472;-60
2022/08/03 10:36:48;;;;;;;3.43;3.13;;;32.90;1.00;;;;;;5053495;28;20404;-61
2022/08/03 10:39:17;;;;;;;3.37;2.93;;;33.10;1.00;;;;;;5052874;28;20970;-59
2022/08/03 10:41:45;;;;;;;2.63;2.43;;;33.60;1.00;;;;;;5051203;28;20789;-59
2022/08/03 10:44:19;;;;;;;3.37;3.10;;;34.00;1.00;;;;;;5053207;28;20491;-60
2022/08/03 10:46:49;;;;;;;6.27;3.20;;;34.10;1.00;;;;;;5052961;28;20431;-58
2022/08/03 10:49:17;;;;;;;3.33;3.03;;;33.60;1.00;;;;;;5052948;28;20445;-60
2022/08/03 10:51:47;;;;;;;3.77;3.47;;;33.30;1.00;;;;;;5052845;28;20962;-59
2022/08/03 10:57:53;;;;;;;4.80;3.13;;;33.30;1.00;;;;;;5052741;28;20834;-60
2022/08/03 11:00:20;;;;;;;2.93;2.73;;;33.10;1.00;;;;;;5046382;28;20545;-59
2022/08/03 11:03:13;;;;;;;3.33;3.03;;;33.30;1.00;;;;;;5052855;28;20960;-59
2022/08/03 11:05:44;;;;;;;6.20;3.23;;;33.10;1.00;;;;;;5053066;28;20975;-58
2022/08/03 11:08:27;;;;;;;4.07;3.13;;;33.00;1.00;;;;;;5052572;28;20411;-60
2022/08/03 11:10:59;;;;;;;3.73;3.33;;;33.50;1.00;;;;;;5050873;28;20441;-59
2022/08/03 11:13:29;;;;;;;3.57;3.30;;;33.40;1.00;;;;;;5052532;28;20466;-58
2022/08/03 11:15:57;;;;;;;6.43;3.07;;;33.20;1.00;;;;;;5052545;28;20801;-60
2022/08/03 11:18:23;;;;;;;3.27;3.07;;;33.20;1.00;;;;;;5052396;28;20405;-61
2022/08/03 11:20:54;;;;;;;5.10;3.37;;;33.00;1.00;;;;;;5052517;28;20416;-59
2022/08/03 11:23:47;;;;;;;4.20;3.07;;;33.10;1.00;;;;;;5051786;28;20426;-59
2022/08/03 11:26:17;;;;;;;5.00;3.90;;;33.40;1.00;;;;;;5052334;28;20944;-59
2022/08/03 11:28:45;;;;;;;4.33;3.57;;;33.60;1.00;;;;;;5052131;28;20921;-59
2022/08/03 11:31:26;;;;;;;3.70;3.03;;;34.00;1.00;;;;;;5052190;28;21029;-59
2022/08/03 11:34:09;;;;;;;5.37;2.97;;;34.40;1.00;;;;;;5051913;28;20481;-60
2022/08/03 11:37:12;;;;;;;2.90;2.70;;;34.30;1.00;;;;;;5051954;28;20447;-60
2022/08/03 11:39:45;;;;;;;5.03;2.73;;;34.00;1.00;;;;;;5051814;28;20430;-59
2022/08/03 11:42:23;;;;;;;3.57;3.07;;;33.80;1.00;;;;;;5052216;28;20564;-59
2022/08/03 11:44:56;;;;;;;4.93;3.80;;;33.80;1.00;;;;;;5051946;28;20515;-60
2022/08/03 11:47:23;;;;;;;3.40;3.17;;;33.80;1.00;;;;;;5050457;28;20443;-59
2022/08/03 11:49:50;;;;;;;3.40;3.10;;;34.10;1.00;;;;;;5051530;28;20503;-59
2022/08/03 11:52:16;;;;;;;3.13;2.40;;;34.30;1.00;;;;;;5050326;28;20441;-60
2022/08/03 11:54:42;;;;;;;2.40;2.20;;;34.30;1.00;;;;;;5071150;28;20440;-59
2022/08/03 11:57:09;;;;;;;3.00;2.80;;;34.40;1.00;;;;;;5054249;28;20427;-59
2022/08/03 11:59:38;;;;;;;3.93;2.83;;;34.50;1.00;;;;;;5051267;28;20441;-59
2022/08/03 12:02:09;;;;;;;4.00;3.33;;;34.80;1.00;;;;;;5050063;28;20673;-60
2022/08/03 12:04:50;;;;;;;5.90;3.37;;;34.90;1.00;;;;;;5051668;28;20434;-60
2022/08/03 12:07:16;;;;;;;3.27;2.97;;;34.40;1.00;;;;;;5050962;28;20475;-59
2022/08/03 12:09:43;;;;;;;3.57;3.00;;;34.30;1.00;;;;;;5050577;28;20450;-61
2022/08/03 12:12:09;;;;;;;5.87;3.20;;;;;;;;;;5051525;28;20449;-59
2022/08/03 12:14:35;;;;;;;6.90;3.23;;;33.90;1.00;;;;;;5051328;28;20431;-59
2022/08/03 12:17:00;;;;;;;7.00;3.20;;;33.90;1.00;;;;;;5051242;28;20431;-60
2022/08/03 12:19:26;;;;;;;4.87;2.57;;;;;;;;;;5051338;28;20263;-59
2022/08/03 12:21:52;;;;;;;3.57;3.27;;;34.70;1.00;;;;;;5051226;28;20199;-59
2022/08/03 12:24:18;;;;;;;3.13;2.93;;;34.70;1.00;;;;;;5050787;28;20446;-59
2022/08/03 12:26:49;;;;;;;6.17;3.03;;;34.90;1.00;;;;;;5051061;28;20602;-59
2022/08/03 12:29:19;;;;;;;4.63;3.03;;;34.90;1.00;;;;;;5051046;28;20431;-59
2022/08/03 12:31:45;;;;;;;4.70;3.13;;;34.70;1.00;;;;;;5050969;28;20420;-59
2022/08/03 12:34:11;;;;;;;4.20;2.90;;;34.40;1.00;;;;;;5063558;28;20431;-60
2022/08/03 12:36:37;;;;;;;3.67;2.70;;;;;;;;;;5070840;28;20576;-59
2022/08/03 12:39:08;;;;;;;4.27;2.97;;;34.10;1.00;;;;;;5055151;28;20413;-58
2022/08/03 12:41:35;;;;;;;3.53;3.23;;;34.30;1.00;;;;;;5050599;28;20527;-59
2022/08/03 12:44:02;;;;;;;3.57;3.20;;;34.30;1.00;;;;;;5050587;28;21057;-59
2022/08/03 12:46:33;;;;;;;3.20;2.90;;;34.10;1.00;;;;;;5049340;28;20462;-59
2022/08/03 12:49:11;;;;;;;4.20;2.87;;;34.10;1.00;;;;;;5047735;28;20439;-59
2022/08/03 12:51:58;;;;;;;3.70;2.80;;;34.30;1.00;;;;;;5049741;28;20434;-60
2022/08/03 12:54:27;;;;;;;2.97;2.77;;;34.40;1.00;;;;;;5049183;28;20477;-59
2022/08/03 12:56:57;;;;;;;6.20;3.23;;;34.30;1.00;;;;;;5047081;28;20947;-59
2022/08/03 12:59:24;;;;;;;5.43;2.97;;;34.30;1.00;;;;;;5047408;28;20450;-59
2022/08/03 13:01:50;;;;;;;3.40;3.00;;;34.50;1.00;;;;;;5048414;28;20443;-60
2022/08/03 13:04:32;;;;;;;4.93;3.03;;;34.40;1.00;;;;;;5048828;28;20418;-59
2022/08/03 13:07:02;;;;;;;3.33;3.03;;;34.50;1.00;;;;;;5047089;28;20657;-59
2022/08/03 13:09:30;;;;;;;3.03;2.70;;;34.50;1.00;;;;;;5056773;28;20419;-60
2022/08/03 13:12:09;;;;;;;3.10;2.80;;;34.60;1.00;;;;;;5057762;28;20416;-59
2022/08/03 13:14:35;;;;;;;3.20;2.90;;;34.50;1.00;;;;;;5060005;28;20870;-59
2022/08/03 13:17:01;;;;;;;9.43;2.77;;;34.60;1.00;;;;;;5048839;28;20468;-59
2022/08/03 13:19:26;;;;;;;3.20;2.90;;;34.80;1.00;;;;;;5065589;28;20368;-61
2022/08/03 13:21:53;;;;;;;5.53;2.97;;;34.80;1.00;;;;;;5050120;28;20188;-60
2022/08/03 13:24:19;;;;;;;3.40;3.10;;;34.80;1.00;;;;;;5054742;28;20651;-59